Time;durP1;ratioP1;P1;durP2;ratioP2;P2;SDS_P1;SDS_P2;PMS_P1;PMS_P2;Temp;Humidity;BMP_temperature;BMP_pressure;BME280_temperature;BME280_humidity;BME280_pressure;Samples;Min_cycle;Max_cycle;Signal;HPM_P1;HPM_P2
2022/09/22 00:01:10;;;;;;;9.18;4.78;;;;;;;8.75;50.24;97162.53;6102186;29;20134;-70
2022/09/22 00:04:14;;;;;;;9.30;5.00;;;;;;;8.68;49.98;97161.16;6101976;29;20075;-70
2022/09/22 00:07:16;;;;;;;10.35;5.25;;;;;;;8.70;49.93;97149.66;6101912;29;20522;-69
2022/09/22 00:10:20;;;;;;;10.65;5.15;;;;;;;8.69;50.08;97147.97;6101628;29;20059;-70
2022/09/22 00:13:23;;;;;;;8.80;5.00;;;;;;;8.66;49.91;97153.38;6101762;29;20071;-70
2022/09/22 00:16:37;;;;;;;13.98;5.40;;;;;;;8.66;50.19;97163.00;6101961;29;20047;-69
2022/09/22 00:19:41;;;;;;;11.25;5.00;;;;;;;8.54;50.24;97154.84;6102159;29;20040;-69
2022/09/22 00:22:48;;;;;;;12.32;5.18;;;;;;;8.50;50.30;97155.94;6101791;29;20136;-70
2022/09/22 00:25:53;;;;;;;10.00;5.28;;;;;;;8.45;50.36;97160.59;6101197;29;20055;-69
2022/09/22 00:28:57;;;;;;;8.57;4.70;;;;;;;8.44;50.63;97164.13;6101772;29;20131;-68
2022/09/22 00:32:01;;;;;;;7.97;4.78;;;;;;;8.44;50.53;97158.06;6101357;29;20048;-69
2022/09/22 00:35:07;;;;;;;8.85;5.53;;;;;;;8.32;50.43;97141.13;6101262;29;20048;-69
2022/09/22 00:38:08;;;;;;;7.47;4.15;;;;;;;8.39;50.48;97155.66;6101582;29;20052;-69
2022/09/22 00:41:17;;;;;;;;;;;;;;;8.31;49.84;97157.78;6101814;29;20044;-70
2022/09/22 00:44:33;;;;;;;7.07;3.83;;;;;;;8.32;50.57;97162.09;6101392;29;19923;-69
2022/09/22 00:47:39;;;;;;;13.02;3.90;;;;;;;8.30;50.86;97166.59;6102883;29;20052;-69
2022/09/22 00:50:47;;;;;;;7.22;3.88;;;;;;;8.22;50.99;97159.09;6105705;29;20044;-70
2022/09/22 00:53:49;;;;;;;6.88;4.43;;;;;;;8.17;50.80;97155.03;6105656;29;20134;-70
2022/09/22 00:57:03;;;;;;;10.38;4.10;;;;;;;8.17;51.53;97162.88;6105791;29;20048;-69
2022/09/22 01:00:09;;;;;;;7.88;4.18;;;;;;;8.12;51.08;97162.25;6105604;29;20047;-69
2022/09/22 01:03:14;;;;;;;9.73;4.15;;;;;;;8.09;51.33;97158.03;6105750;29;20586;-69
2022/09/22 01:06:22;;;;;;;9.93;4.53;;;;;;;8.08;51.44;97166.81;6105339;29;20066;-69
2022/09/22 01:09:24;;;;;;;12.50;6.30;;;;;;;8.04;51.24;97155.66;6105292;29;20158;-69
2022/09/22 01:12:28;;;;;;;8.25;4.60;;;;;;;8.02;51.71;97167.13;6105237;29;20031;-69
2022/09/22 01:15:46;;;;;;;12.18;4.95;;;;;;;8.02;51.94;97173.22;6105791;29;20229;-69
2022/09/22 01:19:16;;;;;;;11.85;4.97;;;;;;;7.96;51.81;97176.16;6105411;29;20058;-68
2022/09/22 01:22:23;;;;;;;13.05;5.03;;;;;;;7.93;51.95;97173.69;6084783;29;20076;-70
2022/09/22 01:25:39;;;;;;;11.52;4.40;;;;;;;7.93;52.34;97178.94;6105212;29;20048;-69
2022/09/22 01:28:59;;;;;;;8.75;4.47;;;;;;;7.88;52.24;97180.91;6105200;29;20052;-71
2022/09/22 01:32:06;;;;;;;8.20;4.07;;;;;;;7.88;52.08;97183.53;6103696;29;20048;-69
2022/09/22 01:35:23;;;;;;;10.85;4.43;;;;;;;7.90;52.01;97181.69;6104475;29;20052;-70
2022/09/22 01:38:41;;;;;;;9.05;4.40;;;;;;;7.87;52.32;97169.59;6104760;29;20521;-69
2022/09/22 01:42:01;;;;;;;22.63;9.70;;;;;;;7.90;52.23;97184.31;6104753;29;20043;-70
2022/09/22 01:45:08;;;;;;;11.13;5.25;;;;;;;7.88;52.06;97181.75;6104545;29;20048;-69
2022/09/22 01:48:30;;;;;;;10.25;5.20;;;;;;;7.89;52.11;97187.84;6104363;29;20059;-69
2022/09/22 01:51:42;;;;;;;8.90;4.80;;;;;;;7.83;52.25;97191.59;6104878;29;20058;-71
2022/09/22 01:54:52;;;;;;;8.80;4.70;;;;;;;7.82;52.42;97189.91;6103225;29;20537;-68
2022/09/22 01:58:02;;;;;;;11.43;4.95;;;;;;;7.87;51.98;97194.94;6102649;29;20052;-69
2022/09/22 02:01:15;;;;;;;7.18;4.60;;;;;;;7.87;52.14;97189.72;6103852;29;20071;-68
2022/09/22 02:04:31;;;;;;;15.20;5.53;;;;;;;7.92;51.91;97187.69;6103385;29;20429;-69
2022/09/22 02:07:37;;;;;;;10.68;5.20;;;;;;;7.94;51.88;97191.09;6103905;29;20048;-70
2022/09/22 02:10:44;;;;;;;10.10;4.80;;;;;;;8.04;52.04;97181.03;6104026;29;20074;-69
2022/09/22 02:13:48;;;;;;;9.00;5.13;;;;;;;8.09;51.96;97185.06;6103583;29;20060;-69
2022/09/22 02:16:51;;;;;;;11.45;5.78;;;;;;;8.14;52.16;97182.25;6103570;29;20048;-69
2022/09/22 02:19:55;;;;;;;9.48;6.25;;;;;;;8.18;52.05;97193.41;6103665;29;20039;-69
2022/09/22 02:22:59;;;;;;;12.35;8.30;;;;;;;8.23;51.22;97188.78;6104018;29;20139;-69
2022/09/22 02:26:05;;;;;;;14.98;7.93;;;;;;;8.22;51.67;97185.31;6103815;29;20056;-69
2022/09/22 02:29:10;;;;;;;15.65;10.00;;;;;;;8.34;51.29;97194.34;6103486;29;20052;-68
2022/09/22 02:32:17;;;;;;;14.55;9.43;;;;;;;8.43;51.11;97193.91;6103410;29;20390;-68
2022/09/22 02:35:21;;;;;;;15.57;8.98;;;;;;;8.49;51.11;97193.59;6103528;29;20060;-69
2022/09/22 02:38:48;;;;;;;16.88;8.82;;;;;;;8.65;50.66;97203.28;6103267;29;20600;-68
2022/09/22 02:41:56;;;;;;;18.73;8.68;;;;;;;8.70;50.37;97207.38;6103226;29;20079;-68
2022/09/22 02:45:07;;;;;;;22.65;9.85;;;;;;;8.75;50.53;97200.13;6102978;29;20052;-69
2022/09/22 02:48:17;;;;;;;17.23;9.23;;;;;;;8.82;50.08;97200.63;6103089;29;20052;-69
2022/09/22 02:51:19;;;;;;;13.98;7.82;;;;;;;8.88;49.90;97200.31;6102654;29;20052;-69
2022/09/22 02:54:21;;;;;;;15.63;8.18;;;;;;;8.99;49.82;97202.38;6101346;29;20056;-68
2022/09/22 02:57:25;;;;;;;16.13;7.65;;;;;;;9.07;49.75;97204.59;6102458;29;20056;-69
2022/09/22 03:00:27;;;;;;;22.90;8.45;;;;;;;9.11;49.42;97206.94;6102486;29;20092;-69
2022/09/22 03:03:29;;;;;;;22.92;7.60;;;;;;;9.26;49.38;97201.84;6102100;29;20130;-69
2022/09/22 03:06:33;;;;;;;20.38;7.88;;;;;;;9.38;49.05;97204.63;6102626;29;20139;-69
2022/09/22 03:09:34;;;;;;;16.55;7.60;;;;;;;9.53;48.97;97215.22;6102182;29;20782;-69
2022/09/22 03:12:44;;;;;;;14.98;7.20;;;;;;;9.64;48.93;97218.09;6102397;29;20035;-70
2022/09/22 03:15:46;;;;;;;17.85;7.45;;;;;;;9.81;48.58;97218.00;6101785;29;20104;-69
2022/09/22 03:18:50;;;;;;;23.15;7.97;;;;;;;9.98;48.29;97224.09;6102152;29;20084;-69
2022/09/22 03:21:54;;;;;;;17.95;7.78;;;;;;;10.13;47.96;97225.81;6101786;29;20434;-70
2022/09/22 03:24:56;;;;;;;16.65;8.18;;;;;;;10.30;47.41;97225.75;6102199;29;20060;-69
2022/09/22 03:27:57;;;;;;;19.40;8.00;;;;;;;10.47;47.31;97226.53;6101994;29;20048;-69
2022/09/22 03:31:01;;;;;;;14.45;6.88;;;;;;;10.64;47.09;97225.53;6101810;29;20047;-69
2022/09/22 03:34:03;;;;;;;20.70;7.93;;;;;;;10.76;46.87;97228.31;6102117;29;20514;-68
2022/09/22 03:37:07;;;;;;;15.15;7.63;;;;;;;10.96;46.50;97237.63;6101878;29;20046;-69
2022/09/22 03:40:08;;;;;;;20.90;8.77;;;;;;;11.09;46.48;97239.50;6102203;29;20071;-68
2022/09/22 03:43:12;;;;;;;17.48;7.55;;;;;;;11.19;46.25;97233.59;6101679;29;20048;-68
2022/09/22 03:46:26;;;;;;;16.92;7.55;;;;;;;11.29;45.90;97236.50;6101781;29;20044;-70
2022/09/22 03:49:30;;;;;;;13.70;7.38;;;;;;;11.36;45.86;97237.81;6101857;29;20056;-69
2022/09/22 03:52:34;;;;;;;16.40;7.60;;;;;;;11.56;45.73;97248.91;6101549;29;20047;-69
2022/09/22 03:55:36;;;;;;;12.52;7.28;;;;;;;11.66;45.47;97255.28;6101396;29;20056;-69
2022/09/22 03:58:41;;;;;;;21.48;8.10;;;;;;;11.78;45.21;97253.66;6099986;29;20422;-69
2022/09/22 04:01:43;;;;;;;20.20;8.60;;;;;;;11.93;44.65;97247.44;6101610;29;20134;-69
2022/09/22 04:04:46;;;;;;;27.42;9.35;;;;;;;12.09;44.41;97242.88;6101628;29;20048;-69
2022/09/22 04:07:50;;;;;;;26.20;10.85;;;;;;;12.23;44.30;97254.28;6101510;29;20044;-68
2022/09/22 04:10:51;;;;;;;19.13;9.68;;;;;;;12.40;44.16;97251.41;6100016;29;20048;-69
2022/09/22 04:13:54;;;;;;;23.73;10.68;;;;;;;12.57;44.08;97253.78;6101210;29;20059;-69
2022/09/22 04:16:55;;;;;;;22.90;10.50;;;;;;;12.73;43.85;97258.00;6101539;29;20070;-69
2022/09/22 04:19:58;;;;;;;25.52;11.45;;;;;;;12.92;43.63;97263.75;6101567;29;20050;-68
2022/09/22 04:23:05;;;;;;;25.05;11.27;;;;;;;13.10;43.34;97269.56;6104377;29;20080;-68
2022/09/22 04:26:06;;;;;;;22.30;11.90;;;;;;;13.30;42.92;97268.22;6106078;29;20040;-71
2022/09/22 04:29:12;;;;;;;25.08;11.13;;;;;;;13.52;42.50;97269.38;6105655;29;20052;-69
2022/09/22 04:32:14;;;;;;;26.33;11.60;;;;;;;13.74;41.92;97266.91;6105989;29;20036;-69
2022/09/22 04:35:17;;;;;;;23.60;11.48;;;;;;;13.96;41.21;97262.72;6105685;29;20138;-72
2022/09/22 04:38:19;;;;;;;25.40;11.07;;;;;;;14.23;40.72;97268.63;6105933;29;20119;-68
2022/09/22 04:41:23;;;;;;;24.35;10.75;;;;;;;14.46;40.22;97268.72;6105708;29;20051;-68
2022/09/22 04:44:25;;;;;;;27.52;10.35;;;;;;;14.71;39.68;97279.22;6105537;29;20608;-68
2022/09/22 04:47:27;;;;;;;19.10;10.32;;;;;;;14.98;38.89;97276.28;6105760;29;20426;-69
2022/09/22 04:50:32;;;;;;;24.15;10.65;;;;;;;15.27;38.42;97275.88;6105523;29;20071;-69
2022/09/22 04:53:37;;;;;;;18.48;9.45;;;;;;;15.57;38.04;97282.38;6104718;29;20558;-69
2022/09/22 04:56:41;;;;;;;23.33;8.82;;;;;;;15.89;37.01;97277.22;6105303;29;20056;-69
2022/09/22 04:59:43;;;;;;;18.45;8.85;;;;;;;16.21;36.03;97281.75;6105475;29;20047;-69
2022/09/22 05:02:44;;;;;;;16.95;7.53;;;;;;;16.49;35.48;97275.03;6105596;29;20561;-69
2022/09/22 05:05:49;;;;;;;12.93;6.10;;;;;;;16.79;34.82;97282.31;6105399;29;20422;-69
2022/09/22 05:08:52;;;;;;;16.73;7.03;;;;;;;17.06;34.09;97285.28;6105210;29;20051;-69
2022/09/22 05:11:58;;;;;;;14.23;6.15;;;;;;;17.27;33.76;97271.16;6105388;29;20048;-69
2022/09/22 05:15:02;;;;;;;13.70;6.07;;;;;;;17.48;33.25;97257.81;6105293;29;20059;-69
2022/09/22 05:18:04;;;;;;;11.10;6.13;;;;;;;17.77;32.86;97273.03;6105081;29;20063;-69
2022/09/22 05:21:11;;;;;;;11.65;4.88;;;;;;;18.06;32.46;97270.50;6104815;29;20052;-69
2022/09/22 05:24:12;;;;;;;14.30;6.00;;;;;;;18.44;32.12;97280.41;6104540;29;20119;-69
2022/09/22 05:27:17;;;;;;;10.38;5.15;;;;;;;18.71;31.56;97279.72;6104509;29;20059;-69
2022/09/22 05:30:23;;;;;;;11.20;4.70;;;;;;;19.71;30.46;97289.97;6104657;29;20067;-69
2022/09/22 05:33:28;;;;;;;9.60;4.57;;;;;;;24.49;24.86;97294.38;6104269;29;20044;-69
2022/09/22 05:36:31;;;;;;;8.32;4.07;;;;;;;30.17;19.57;97300.81;6104128;29;20147;-69
2022/09/22 05:39:35;;;;;;;12.73;4.15;;;;;;;34.10;16.02;97303.03;6104641;29;20193;-69
2022/09/22 05:42:43;;;;;;;11.25;4.97;;;;;;;36.40;13.49;97305.22;6104632;29;20039;-69
2022/09/22 05:45:47;;;;;;;10.00;4.93;;;;;;;38.63;12.34;97300.31;6104523;29;20056;-68
2022/09/22 05:48:53;;;;;;;8.25;4.32;;;;;;;40.99;10.31;97310.13;6104401;29;20059;-68
2022/09/22 05:51:57;;;;;;;14.20;4.63;;;;;;;42.43;10.01;97315.28;6102887;29;20048;-69
2022/09/22 05:54:59;;;;;;;10.95;4.80;;;;;;;42.94;9.45;97311.06;6104226;29;20199;-68
2022/09/22 05:58:04;;;;;;;7.03;4.25;;;;;;;43.52;8.82;97316.31;6103701;29;20773;-68
2022/09/22 06:01:11;;;;;;;10.43;4.15;;;;;;;44.72;8.39;97317.47;6103992;29;20058;-68
2022/09/22 06:04:12;;;;;;;6.80;4.05;;;;;;;46.35;7.19;97313.56;6103776;29;20040;-68
2022/09/22 06:07:15;;;;;;;7.43;3.65;;;;;;;47.73;6.66;97316.88;6104181;29;20091;-68
2022/09/22 06:10:16;;;;;;;8.38;4.13;;;;;;;49.10;6.00;97317.84;6103816;29;20059;-68
2022/09/22 06:13:20;;;;;;;7.88;4.10;;;;;;;50.15;5.47;97321.31;6102560;29;20426;-69
2022/09/22 06:16:22;;;;;;;6.35;3.55;;;;;;;51.06;4.84;97323.94;6103841;29;20048;-68
2022/09/22 06:19:28;;;;;;;10.48;2.80;;;;;;;51.58;4.11;97317.47;6103582;29;20052;-68
2022/09/22 06:22:34;;;;;;;6.07;2.50;;;;;;;51.91;4.21;97313.59;6103469;29;20056;-68
2022/09/22 06:25:37;;;;;;;4.35;1.80;;;;;;;52.62;4.03;97313.81;6103319;29;20052;-68
2022/09/22 06:28:42;;;;;;;4.90;2.25;;;;;;;53.45;3.89;97308.06;6102314;29;20040;-69
2022/09/22 06:31:48;;;;;;;6.30;2.15;;;;;;;54.24;3.60;97316.03;6103360;29;20048;-68
2022/09/22 06:34:53;;;;;;;1.50;0.73;;;;;;;53.50;2.48;97313.41;6103176;29;20203;-68
2022/09/22 06:37:59;;;;;;;1.92;1.15;;;;;;;51.82;2.78;97310.13;6103242;29;20056;-68
2022/09/22 06:41:06;;;;;;;3.00;1.00;;;;;;;52.05;2.57;97311.19;6103175;29;20080;-69
2022/09/22 06:44:09;;;;;;;1.67;1.05;;;;;;;52.72;2.09;97310.47;6102755;29;20510;-68
2022/09/22 06:47:14;;;;;;;3.75;0.93;;;;;;;53.51;1.72;97320.66;6102778;29;20071;-69
2022/09/22 06:50:16;;;;;;;2.65;0.75;;;;;;;53.55;1.97;97307.50;6102853;29;20079;-69
2022/09/22 06:53:21;;;;;;;1.90;1.20;;;;;;;54.12;1.88;97304.97;6102688;29;20422;-68
2022/09/22 06:56:25;;;;;;;2.45;0.85;;;;;;;54.57;1.54;97309.78;6102928;29;20040;-68
2022/09/22 06:59:29;;;;;;;1.67;0.73;;;;;;;54.83;1.79;97308.16;6102841;29;20048;-68
2022/09/22 07:02:34;;;;;;;1.60;0.77;;;;;;;55.14;1.58;97307.81;6102955;29;20047;-68
2022/09/22 07:05:37;;;;;;;2.10;0.90;;;;;;;53.31;1.53;97286.91;6102244;29;20059;-67
2022/09/22 07:08:39;;;;;;;0.93;0.68;;;;;;;52.51;1.73;97291.88;6102533;29;20067;-68
2022/09/22 07:11:43;;;;;;;1.83;0.60;;;;;;;50.25;2.37;97295.69;6102589;29;20044;-68
2022/09/22 07:14:50;;;;;;;1.67;0.80;;;;;;;48.58;2.55;97276.25;6102317;29;20202;-69
2022/09/22 07:17:52;;;;;;;3.13;1.10;;;;;;;47.95;3.19;97267.63;6101893;29;20502;-69
2022/09/22 07:21:06;;;;;;;2.15;0.90;;;;;;;48.66;3.13;97281.78;6102272;29;20063;-68
2022/09/22 07:24:15;;;;;;;2.88;0.93;;;;;;;48.82;2.90;97275.59;6102140;29;20083;-68
2022/09/22 07:27:25;;;;;;;2.83;1.25;;;;;;;48.52;3.30;97270.84;6101718;29;20052;-68
2022/09/22 07:30:29;;;;;;;3.58;2.00;;;;;;;49.07;2.93;97274.63;6101909;29;20048;-68
2022/09/22 07:33:38;;;;;;;2.22;1.25;;;;;;;50.60;2.68;97281.22;6101246;29;20055;-68
2022/09/22 07:36:41;;;;;;;2.22;1.83;;;;;;;52.37;1.73;97283.13;6101781;29;20040;-68
2022/09/22 07:39:45;;;;;;;1.60;1.00;;;;;;;53.36;1.16;97289.44;6101738;29;20040;-68
2022/09/22 07:42:50;;;;;;;1.00;0.70;;;;;;;54.55;1.02;97289.59;6101758;29;20036;-68
2022/09/22 07:45:56;;;;;;;2.35;0.75;;;;;;;55.20;0.89;97296.22;6101813;29;20040;-68
2022/09/22 07:49:00;;;;;;;3.13;1.00;;;;;;;55.10;1.00;97295.69;6101938;29;20040;-69
2022/09/22 07:52:04;;;;;;;2.33;0.70;;;;;;;55.54;0.52;97292.22;6101698;29;20052;-68
2022/09/22 07:55:09;;;;;;;2.45;0.75;;;;;;;55.47;0.85;97288.53;6101647;29;20051;-68
2022/09/22 07:58:12;;;;;;;1.80;0.70;;;;;;;56.17;0.62;97298.13;6101621;29;20052;-69
2022/09/22 08:01:18;;;;;;;1.85;1.20;;;;;;;56.90;0.58;97296.31;6101652;29;20040;-68
2022/09/22 08:04:25;;;;;;;3.22;1.10;;;;;;;57.25;0.36;97289.25;6101523;29;20550;-68
2022/09/22 08:07:35;;;;;;;3.72;1.52;;;;;;;56.98;0.54;97290.72;6101380;29;20410;-68
2022/09/22 08:10:38;;;;;;;2.92;1.60;;;;;;;57.05;0.44;97279.41;6101184;29;20044;-69
2022/09/22 08:13:49;;;;;;;3.30;1.40;;;;;;;56.57;0.40;97282.34;6101092;29;20074;-69
2022/09/22 08:16:52;;;;;;;6.43;1.40;;;;;;;57.18;0.82;97272.25;6101550;29;20051;-68
2022/09/22 08:19:58;;;;;;;4.07;1.20;;;;;;;58.05;0.53;97279.78;6101428;29;20048;-68
2022/09/22 08:23:02;;;;;;;3.67;0.95;;;;;;;57.77;0.06;97275.69;6101199;29;20362;-68
2022/09/22 08:26:07;;;;;;;1.05;0.50;;;;;;;57.05;0.01;97279.41;6101352;29;20435;-68
2022/09/22 08:29:11;;;;;;;3.70;0.75;;;;;;;55.96;0.00;97268.50;6101217;29;20048;-69
2022/09/22 08:32:17;;;;;;;4.05;1.13;;;;;;;56.38;0.36;97270.09;6101410;29;20048;-68
2022/09/22 08:35:22;;;;;;;1.20;0.50;;;;;;;56.54;0.00;97271.84;6101153;29;20044;-68
2022/09/22 08:38:28;;;;;;;2.42;0.80;;;;;;;56.77;0.00;97277.25;6100842;29;20048;-68
2022/09/22 08:41:47;;;;;;;0.50;0.40;;;;;;;57.27;0.00;97271.88;6101213;29;20044;-68
2022/09/22 08:45:30;;;;;;;0.68;0.38;;;;;;;57.79;0.00;97273.28;6100825;29;20036;-68
2022/09/22 08:52:24;;;;;;;0.93;0.50;;;;;;;56.16;0.00;97262.63;6101114;29;20509;-68
2022/09/22 08:55:29;;;;;;;1.58;0.45;;;;;;;54.97;0.00;97254.84;6093754;29;20067;-68
2022/09/22 08:58:41;;;;;;;0.50;0.40;;;;;;;55.02;0.00;97250.88;6100467;29;20134;-69
2022/09/22 09:01:50;;;;;;;2.53;0.63;;;;;;;55.59;0.35;97251.59;6101045;29;20052;-69
2022/09/22 09:04:54;;;;;;;2.22;0.68;;;;;;;55.99;0.00;97242.31;6101058;29;20044;-69
2022/09/22 09:08:14;;;;;;;1.02;0.55;;;;;;;55.37;0.00;97239.22;6101532;29;20072;-69
2022/09/22 09:11:31;;;;;;;0.70;0.40;;;;;;;55.19;0.40;97232.56;6105033;29;20056;-68
2022/09/22 09:14:39;;;;;;;1.35;0.43;;;;;;;55.26;0.10;97235.44;6104991;29;20052;-68
2022/09/22 09:17:50;;;;;;;1.65;0.60;;;;;;;54.63;0.23;97229.34;6104173;29;20059;-68
2022/09/22 09:20:52;;;;;;;2.15;0.50;;;;;;;52.79;0.50;97217.09;6105008;29;20230;-68
2022/09/22 09:24:04;;;;;;;1.40;0.43;;;;;;;51.46;1.04;97213.75;6104903;29;20043;-69
2022/09/22 09:27:13;;;;;;;1.33;0.60;;;;;;;50.15;1.13;97206.56;6104536;29;20064;-69
2022/09/22 09:30:19;;;;;;;1.85;0.60;;;;;;;49.67;1.53;97208.13;6104891;29;20634;-69
2022/09/22 09:33:39;;;;;;;0.30;0.30;;;;;;;50.48;1.24;97208.41;6105041;29;20052;-69
2022/09/22 09:37:00;;;;;;;2.50;2.15;;;;;;;51.12;1.11;97204.78;6104487;29;20047;-71
2022/09/22 09:40:07;;;;;;;1.48;1.17;;;;;;;51.99;0.83;97205.94;6104750;29;20626;-68
2022/09/22 09:43:09;;;;;;;0.90;0.50;;;;;;;50.95;1.26;97200.28;6104589;29;20055;-68
2022/09/22 09:47:02;;;;;;;1.33;0.90;;;;;;;48.89;1.55;97195.69;6104578;29;20048;-68
2022/09/22 09:50:05;;;;;;;3.33;0.93;;;;;;;48.37;2.13;97184.88;6103591;29;20056;-68
2022/09/22 09:53:23;;;;;;;2.80;0.90;;;;;;;48.91;2.15;97182.22;6103930;29;20099;-68
2022/09/22 09:56:30;;;;;;;2.55;0.88;;;;;;;49.12;2.00;97186.94;6104404;29;20044;-69
2022/09/22 10:03:23;;;;;;;1.08;0.50;;;;;;;47.97;1.83;97176.88;6104051;29;20494;-68
2022/09/22 10:06:28;;;;;;;1.77;0.60;;;;;;;47.06;2.32;97176.13;6103614;29;20048;-69
2022/09/22 10:09:33;;;;;;;1.90;0.70;;;;;;;46.41;2.24;97171.50;6103578;29;20088;-69
2022/09/22 10:12:38;;;;;;;1.35;0.65;;;;;;;47.08;2.52;97165.50;6103675;29;20510;-69
2022/09/22 10:15:58;;;;;;;2.90;0.70;;;;;;;48.30;2.04;97170.66;6103628;29;20052;-69
2022/09/22 10:19:33;;;;;;;1.67;0.90;;;;;;;47.44;2.38;97181.00;6103427;29;20044;-69
2022/09/22 10:22:40;;;;;;;0.60;0.60;;;;;;;47.71;2.38;97176.16;6095669;29;20056;-68
2022/09/22 10:25:45;;;;;;;2.05;0.68;;;;;;;47.91;2.54;97181.03;6103240;29;20044;-68
2022/09/22 10:29:11;;;;;;;1.90;0.68;;;;;;;47.77;2.28;97174.81;6103614;29;20048;-68
2022/09/22 10:32:15;;;;;;;1.23;0.57;;;;;;;47.41;2.50;97164.94;6097449;29;20052;-69
2022/09/22 10:35:28;;;;;;;2.53;0.80;;;;;;;47.68;2.37;97166.50;6103495;29;20434;-69
2022/09/22 10:38:33;;;;;;;0.70;0.57;;;;;;;46.45;2.38;97166.91;6102198;29;20114;-69
2022/09/22 10:41:40;;;;;;;1.55;1.00;;;;;;;44.83;2.94;97157.91;6103351;29;20040;-69
2022/09/22 10:44:46;;;;;;;1.70;0.70;;;;;;;43.95;3.79;97149.84;6102142;29;20039;-69
2022/09/22 10:48:24;;;;;;;3.75;0.90;;;;;;;43.34;3.42;97156.50;6102913;29;20048;-69
2022/09/22 10:51:43;;;;;;;5.82;0.93;;;;;;;42.97;3.28;97147.13;6103010;29;20483;-69
2022/09/22 10:55:14;;;;;;;3.22;0.80;;;;;;;43.09;3.73;97144.75;6102847;29;20083;-68
2022/09/22 10:58:38;;;;;;;2.72;1.25;;;;;;;44.09;3.20;97150.63;6101299;29;20048;-68
2022/09/22 11:02:17;;;;;;;2.03;1.20;;;;;;;44.69;3.10;97149.59;6096118;29;20056;-68
2022/09/22 11:13:18;;;;;;;3.10;1.35;;;;;;;41.90;3.95;97142.00;6102277;29;20417;-68
2022/09/22 11:16:40;;;;;;;1.15;1.00;;;;;;;42.30;3.85;97139.81;6087529;29;20056;-69
2022/09/22 11:20:05;;;;;;;1.20;0.85;;;;;;;41.31;4.35;97137.63;6102419;29;20060;-69
2022/09/22 11:23:23;;;;;;;3.17;0.85;;;;;;;39.61;4.85;97142.47;6102147;29;20647;-69
2022/09/22 11:26:55;;;;;;;1.60;0.70;;;;;;;38.53;5.04;97133.41;6102012;29;20055;-69
2022/09/22 11:30:22;;;;;;;1.88;0.90;;;;;;;38.95;4.84;97134.28;6102025;29;20052;-69
2022/09/22 11:34:05;;;;;;;1.92;0.80;;;;;;;39.38;4.80;97129.28;6101793;29;20062;-69
2022/09/22 11:37:27;;;;;;;2.60;1.30;;;;;;;39.05;5.49;97128.78;6101819;29;20423;-69
2022/09/22 11:41:12;;;;;;;3.72;1.08;;;;;;;38.64;5.41;97131.47;6101642;29;20183;-69
2022/09/22 11:44:32;;;;;;;1.05;0.80;;;;;;;38.34;5.79;97129.50;6088069;29;20059;-69
2022/09/22 11:47:57;;;;;;;2.80;0.93;;;;;;;38.34;5.36;97130.31;6101539;29;20511;-69
2022/09/22 11:51:31;;;;;;;2.92;0.70;;;;;;;38.12;5.33;97138.78;6101275;29;20152;-69
2022/09/22 11:54:49;;;;;;;2.63;0.70;;;;;;;38.06;5.83;97133.53;6101457;29;20426;-70
2022/09/22 11:58:03;;;;;;;2.00;0.82;;;;;;;37.78;5.77;97132.84;6101503;29;20051;-68
2022/09/22 12:01:20;;;;;;;1.25;0.77;;;;;;;37.35;5.74;97140.28;6101578;29;20058;-68
2022/09/22 12:04:28;;;;;;;0.73;0.47;;;;;;;37.01;5.78;97140.59;6101313;29;20422;-68
2022/09/22 12:07:35;;;;;;;2.15;0.93;;;;;;;37.18;6.30;97139.63;6084989;29;20056;-69
2022/09/22 12:10:41;;;;;;;3.10;1.73;;;;;;;36.91;6.15;97140.47;6100181;29;20051;-69
2022/09/22 12:13:49;;;;;;;3.00;1.40;;;;;;;36.34;6.47;97141.00;6100845;29;20052;-69
2022/09/22 12:17:35;;;;;;;0.90;0.70;;;;;;;35.69;6.60;97129.81;6101303;29;20422;-70
2022/09/22 12:20:48;;;;;;;3.35;1.13;;;;;;;35.41;6.94;97143.63;6052674;29;20464;-69
2022/09/22 12:23:53;;;;;;;3.53;1.15;;;;;;;35.26;6.99;97136.84;6101034;29;20092;-69
2022/09/22 12:26:54;;;;;;;0.98;0.80;;;;;;;34.60;7.06;97130.31;6100780;29;20051;-70
2022/09/22 12:30:00;;;;;;;2.95;1.10;;;;;;;33.89;7.42;97133.28;6100982;29;20102;-69
2022/09/22 12:33:12;;;;;;;1.75;0.88;;;;;;;33.35;7.40;97131.81;6100987;29;20494;-69
2022/09/22 12:36:27;;;;;;;1.35;0.82;;;;;;;32.94;7.74;97137.09;6100924;29;20414;-69
2022/09/22 12:39:31;;;;;;;3.22;1.13;;;;;;;32.79;8.30;97129.41;6099612;29;20141;-70
2022/09/22 12:42:38;;;;;;;2.75;1.15;;;;;;;32.95;8.67;97136.06;6101023;29;20036;-68
2022/09/22 12:45:42;;;;;;;2.15;1.10;;;;;;;32.82;8.21;97125.38;6105338;29;20044;-69
2022/09/22 12:48:46;;;;;;;4.25;1.10;;;;;;;32.47;8.30;97130.75;6103684;29;20052;-69
2022/09/22 12:51:51;;;;;;;1.55;1.27;;;;;;;32.24;8.41;97136.91;6105111;29;20526;-70
2022/09/22 12:55:29;;;;;;;2.00;1.30;;;;;;;32.09;8.60;97140.88;6104970;29;20040;-70
2022/09/22 12:58:30;;;;;;;1.60;1.10;;;;;;;31.51;9.42;97133.22;6105110;29;20526;-70
2022/09/22 13:01:33;;;;;;;1.60;1.02;;;;;;;31.04;9.20;97128.19;6104593;29;20048;-69
2022/09/22 13:04:38;;;;;;;5.28;1.38;;;;;;;30.77;9.65;97127.59;6104313;29;20040;-70
2022/09/22 13:07:44;;;;;;;3.67;1.50;;;;;;;30.59;9.83;97130.22;6104544;29;20056;-69
2022/09/22 13:10:58;;;;;;;3.88;1.40;;;;;;;30.29;10.12;97127.28;6104356;29;20533;-69
2022/09/22 13:14:00;;;;;;;2.65;1.80;;;;;;;29.77;10.24;97121.91;6103572;29;20048;-69
2022/09/22 13:17:38;;;;;;;2.33;1.67;;;;;;;29.32;10.68;97124.50;6104677;29;20092;-69
2022/09/22 13:20:40;;;;;;;3.15;1.40;;;;;;;28.83;11.03;97123.09;6104691;29;20087;-69
2022/09/22 13:23:50;;;;;;;7.10;1.52;;;;;;;28.45;11.85;97123.72;6104477;29;20415;-70
2022/09/22 13:27:04;;;;;;;3.42;1.48;;;;;;;28.04;12.25;97119.22;6104147;29;20063;-69
2022/09/22 13:30:12;;;;;;;3.33;1.73;;;;;;;27.63;12.83;97120.09;6104470;29;20190;-70
2022/09/22 13:33:24;;;;;;;8.05;2.08;;;;;;;27.31;13.44;97127.81;6104716;29;20080;-69
2022/09/22 13:36:32;;;;;;;6.80;2.92;;;;;;;26.92;13.82;97111.31;6104500;29;20045;-69
2022/09/22 13:39:39;;;;;;;4.50;1.85;;;;;;;26.57;13.86;97116.66;6103746;29;20048;-69
2022/09/22 13:42:43;;;;;;;6.90;1.90;;;;;;;26.24;13.15;97122.53;6104217;29;20052;-68
2022/09/22 13:45:50;;;;;;;28.42;16.95;;;;;;;25.90;14.68;97121.38;6103727;29;20056;-69
2022/09/22 13:48:59;;;;;;;14.05;5.85;;;;;;;25.57;16.03;97128.19;6104002;29;20048;-71
2022/09/22 13:52:12;;;;;;;18.90;5.43;;;;;;;25.21;17.10;97131.66;6103886;29;20408;-69
2022/09/22 13:55:22;;;;;;;26.33;13.85;;;;;;;24.87;19.32;97138.34;6103729;29;20138;-70
2022/09/22 13:58:38;;;;;;;25.73;12.77;;;;;;;24.51;20.30;97139.00;6103882;29;20060;-69
2022/09/22 14:01:46;;;;;;;39.28;19.25;;;;;;;24.15;22.00;97150.34;6104002;29;20055;-69
2022/09/22 14:04:51;;;;;;;52.50;27.25;;;;;;;23.84;22.90;97150.34;6104296;29;20040;-69
2022/09/22 14:07:57;;;;;;;73.80;40.78;;;;;;;23.54;24.58;97149.28;6103784;29;20115;-70
2022/09/22 14:11:03;;;;;;;98.20;53.90;;;;;;;23.24;25.62;97157.13;6104077;29;20047;-70
2022/09/22 14:14:21;;;;;;;114.07;64.47;;;;;;;23.02;26.33;97152.47;6103615;29;20056;-70
2022/09/22 14:17:28;;;;;;;172.05;91.25;;;;;;;22.76;27.49;97153.50;6103247;29;20516;-69
2022/09/22 14:20:37;;;;;;;185.18;103.28;;;;;;;22.52;27.96;97157.00;6103613;29;20578;-70
2022/09/22 14:23:48;;;;;;;232.80;130.02;;;;;;;22.25;28.97;97155.50;6103389;29;20043;-70
2022/09/22 14:27:04;;;;;;;218.20;123.45;;;;;;;21.94;29.54;97158.75;6103193;29;20522;-69
2022/09/22 14:30:15;;;;;;;204.52;120.82;;;;;;;21.65;29.88;97155.63;6103160;29;20044;-71
2022/09/22 14:33:34;;;;;;;213.05;126.40;;;;;;;21.49;30.58;97164.47;6102817;29;20184;-70
2022/09/22 14:36:47;;;;;;;212.90;127.63;;;;;;;21.24;31.71;97177.69;6102758;29;20048;-69
2022/09/22 14:39:53;;;;;;;211.77;123.88;;;;;;;21.00;31.76;97170.31;6102608;29;20491;-70
2022/09/22 14:43:02;;;;;;;207.05;122.35;;;;;;;20.83;32.39;97173.91;6103225;29;20048;-71
2022/09/22 14:46:20;;;;;;;196.15;113.00;;;;;;;20.69;33.22;97182.47;6102458;29;20059;-69
2022/09/22 14:49:39;;;;;;;164.05;100.78;;;;;;;20.52;32.88;97184.16;6102767;29;20051;-69
2022/09/22 14:53:16;;;;;;;167.95;94.10;;;;;;;20.37;32.96;97189.19;6102865;29;20427;-69
2022/09/22 14:56:32;;;;;;;182.15;102.68;;;;;;;20.12;33.44;97188.97;6084280;29;20131;-69
2022/09/22 15:03:13;;;;;;;187.85;114.13;;;;;;;19.67;34.13;97197.81;6102899;29;20411;-70
2022/09/22 15:06:14;;;;;;;164.65;93.20;;;;;;;19.51;33.96;97202.94;6101190;29;20056;-70
2022/09/22 15:09:39;;;;;;;151.80;85.55;;;;;;;19.38;34.00;97197.91;6102463;29;20130;-70